createdAt,value
2019-03-25T00:02:30.687Z,25.60
2019-03-25T00:05:39.494Z,24.97
2019-03-25T00:08:48.021Z,25.83
2019-03-25T00:11:56.222Z,25.90
2019-03-25T00:15:05.072Z,23.77
2019-03-25T00:18:13.595Z,23.47
2019-03-25T00:21:21.835Z,23.47
2019-03-25T00:24:38.135Z,24.87
2019-03-25T00:27:40.366Z,24.80
2019-03-25T00:30:48.494Z,25.13
2019-03-25T00:33:56.563Z,25.50
2019-03-25T00:37:04.860Z,25.63
2019-03-25T00:40:13.248Z,23.30
2019-03-25T00:43:21.644Z,23.77
2019-03-25T00:46:30.019Z,25.60
2019-03-25T00:49:38.368Z,27.97
2019-03-25T00:52:46.693Z,25.30
2019-03-25T00:55:55.211Z,24.07
2019-03-25T00:59:03.727Z,25.90
2019-03-25T01:02:12.274Z,24.27
2019-03-25T01:05:22.014Z,24.90
2019-03-25T01:08:30.114Z,26.13
2019-03-25T01:11:48.624Z,25.03
2019-03-25T01:14:48.432Z,25.97
2019-03-25T01:17:56.524Z,25.03
2019-03-25T01:21:05.108Z,25.87
2019-03-25T01:24:13.297Z,25.57
2019-03-25T01:27:21.493Z,26.27
2019-03-25T01:30:29.676Z,27.30
2019-03-25T01:33:37.694Z,25.50
2019-03-25T01:36:45.889Z,24.77
2019-03-25T01:39:54.236Z,25.80
2019-03-25T01:43:02.432Z,26.63
2019-03-25T01:46:10.736Z,25.17
2019-03-25T01:49:18.921Z,25.90
2019-03-25T01:52:27.489Z,25.27
2019-03-25T01:55:35.924Z,24.37
2019-03-25T01:58:44.369Z,24.87
2019-03-25T02:01:52.470Z,23.07
2019-03-25T02:05:01.096Z,25.53
2019-03-25T02:08:09.194Z,26.63
2019-03-25T02:11:17.598Z,27.03
2019-03-25T02:14:26.015Z,25.93
2019-03-25T02:17:34.203Z,25.93
2019-03-25T02:20:42.657Z,26.43
2019-03-25T02:23:50.846Z,26.23
2019-03-25T02:26:59.602Z,25.47
2019-03-25T02:30:08.977Z,24.90
2019-03-25T02:33:17.229Z,23.97
2019-03-25T02:36:25.210Z,25.00
2019-03-25T02:39:33.291Z,23.73
2019-03-25T02:42:41.511Z,23.53
2019-03-25T02:45:49.599Z,26.37
2019-03-25T02:48:57.725Z,26.83
2019-03-25T02:52:06.233Z,24.53
2019-03-25T02:55:14.425Z,25.57
2019-03-25T02:58:22.849Z,24.33
2019-03-25T03:01:31.812Z,26.03
2019-03-25T03:04:40.615Z,27.33
2019-03-25T03:07:49.228Z,26.87
2019-03-25T03:10:57.843Z,24.90
2019-03-25T03:14:06.283Z,24.33
2019-03-25T03:17:14.360Z,27.83
2019-03-25T03:20:22.669Z,26.77
2019-03-25T03:23:31.356Z,26.27
2019-03-25T03:26:39.551Z,26.67
2019-03-25T03:29:48.169Z,26.70
2019-03-25T03:32:56.267Z,27.50
2019-03-25T03:36:04.554Z,28.53
2019-03-25T03:39:13.001Z,28.73
2019-03-25T03:42:21.343Z,28.77
2019-03-25T03:45:29.588Z,28.93
2019-03-25T03:48:37.779Z,28.20
2019-03-25T03:51:46.528Z,28.80
2019-03-25T03:54:54.945Z,29.97
2019-03-25T03:58:04.090Z,29.77
2019-03-25T04:01:13.047Z,32.10
2019-03-25T04:04:21.378Z,29.97
2019-03-25T04:07:29.954Z,30.50
2019-03-25T04:10:38.708Z,28.27
2019-03-25T04:13:46.793Z,31.40
2019-03-25T04:16:55.013Z,30.60
2019-03-25T04:20:03.963Z,31.27
2019-03-25T04:23:12.287Z,29.63
2019-03-25T04:26:28.410Z,28.57
2019-03-25T04:29:30.946Z,28.47
2019-03-25T04:32:39.404Z,30.50
2019-03-25T04:35:48.260Z,29.10
2019-03-25T04:38:57.590Z,29.53
2019-03-25T04:42:06.330Z,27.67
2019-03-25T04:45:16.387Z,29.57
2019-03-25T04:48:38.559Z,29.33
2019-03-25T04:51:48.478Z,28.97
2019-03-25T04:54:56.479Z,27.63
2019-03-25T04:58:04.943Z,29.50
2019-03-25T05:01:13.597Z,28.47
2019-03-25T05:04:21.816Z,27.57
2019-03-25T05:07:29.933Z,29.17
2019-03-25T05:10:40.073Z,28.93
2019-03-25T05:13:48.261Z,27.40
2019-03-25T05:16:56.447Z,28.17
2019-03-25T05:20:06.531Z,27.53
2019-03-25T05:23:14.954Z,27.13
2019-03-25T05:26:23.674Z,29.53
2019-03-25T05:29:32.074Z,29.47
2019-03-25T05:32:40.363Z,28.87
2019-03-25T05:35:48.930Z,29.93
2019-03-25T05:38:57.228Z,28.70
2019-03-25T05:42:05.662Z,30.83
2019-03-25T05:45:14.010Z,28.50
2019-03-25T05:48:22.596Z,27.80
2019-03-25T05:51:30.588Z,26.40
2019-03-25T05:54:38.622Z,27.40
2019-03-25T05:57:47.118Z,26.83
2019-03-25T06:00:55.631Z,27.33
2019-03-25T06:04:04.309Z,26.57
2019-03-25T06:07:12.502Z,25.37
2019-03-25T06:10:21.027Z,26.40
2019-03-25T06:13:29.548Z,24.67
2019-03-25T06:16:37.650Z,23.47
2019-03-25T06:19:45.860Z,23.23
2019-03-25T06:22:53.829Z,22.43
2019-03-25T06:26:02.478Z,21.57
2019-03-25T06:29:11.207Z,21.93
2019-03-25T06:32:19.735Z,17.10
2019-03-25T06:35:28.130Z,18.97
2019-03-25T06:38:36.304Z,16.60
2019-03-25T06:41:44.507Z,18.23
2019-03-25T06:44:53.466Z,16.47
2019-03-25T06:48:01.749Z,17.93
2019-03-25T06:51:10.237Z,18.47
2019-03-25T06:54:18.377Z,19.97
2019-03-25T06:57:26.645Z,18.77
2019-03-25T07:00:35.183Z,17.27
2019-03-25T07:03:43.937Z,12.03
2019-03-25T07:06:52.324Z,12.20
2019-03-25T07:10:00.510Z,10.67
2019-03-25T07:13:08.952Z,12.43
2019-03-25T07:16:17.690Z,10.83
2019-03-25T07:19:25.990Z,8.50
2019-03-25T07:22:34.919Z,10.77
2019-03-25T07:28:59.405Z,9.60
2019-03-25T07:32:09.060Z,8.67
2019-03-25T07:35:17.393Z,9.23
2019-03-25T07:38:25.630Z,10.53
2019-03-25T07:41:33.733Z,5.93
2019-03-25T07:44:42.108Z,9.60
2019-03-25T07:47:51.003Z,10.17
2019-03-25T07:50:59.238Z,9.20
2019-03-25T07:54:08.058Z,8.10
2019-03-25T07:57:16.358Z,9.13
2019-03-25T08:00:24.916Z,9.50
2019-03-25T08:03:33.184Z,8.03
2019-03-25T08:06:41.629Z,7.30
2019-03-25T08:09:49.811Z,7.53
2019-03-25T08:12:58.540Z,9.23
2019-03-25T08:16:07.534Z,8.60
2019-03-25T08:19:16.319Z,9.43
2019-03-25T08:22:24.421Z,7.07
2019-03-25T08:25:33.046Z,7.53
2019-03-25T08:28:41.154Z,7.77
2019-03-25T08:31:49.511Z,7.00
2019-03-25T08:34:57.644Z,6.67
2019-03-25T08:38:06.671Z,5.53
2019-03-25T08:41:15.137Z,6.97
2019-03-25T08:44:23.622Z,6.93
2019-03-25T08:47:32.173Z,8.13
2019-03-25T08:50:40.513Z,7.07
2019-03-25T08:53:48.795Z,7.23
2019-03-25T08:56:57.124Z,7.53
2019-03-25T09:00:06.384Z,8.17
2019-03-25T09:03:14.814Z,6.87
2019-03-25T09:06:23.186Z,8.63
2019-03-25T09:09:31.521Z,7.07
2019-03-25T09:12:40.336Z,7.23
2019-03-25T09:15:48.878Z,7.23
2019-03-25T09:18:57.096Z,6.47
2019-03-25T09:22:06.776Z,7.03
2019-03-25T09:25:15.462Z,7.17
2019-03-25T09:28:24.786Z,4.27
2019-03-25T09:31:36.955Z,4.10
2019-03-25T09:34:44.416Z,5.90
2019-03-25T09:37:53.229Z,6.33
2019-03-25T09:41:01.606Z,5.60
2019-03-25T09:44:09.837Z,4.93
2019-03-25T09:47:18.197Z,3.23
2019-03-25T09:50:26.940Z,5.80
2019-03-25T09:53:35.261Z,5.80
2019-03-25T09:56:43.486Z,5.07
2019-03-25T09:59:51.858Z,2.50
2019-03-25T10:03:00.489Z,2.67
2019-03-25T10:06:08.923Z,4.10
2019-03-25T10:09:17.073Z,1.50
2019-03-25T10:12:25.276Z,2.20
2019-03-25T10:15:33.490Z,1.93
2019-03-25T10:18:41.923Z,3.53
2019-03-25T10:21:50.261Z,1.80
2019-03-25T10:24:58.528Z,3.77
2019-03-25T10:28:07.981Z,2.17
2019-03-25T10:31:17.537Z,2.27
2019-03-25T10:34:25.904Z,2.63
2019-03-25T10:37:34.454Z,2.10
2019-03-25T10:40:42.375Z,1.87
2019-03-25T10:43:50.613Z,2.97
2019-03-25T10:46:58.815Z,4.17
2019-03-25T10:50:09.028Z,4.33
2019-03-25T10:53:17.320Z,3.73
2019-03-25T10:56:26.456Z,4.27
2019-03-25T10:59:34.647Z,2.30
2019-03-25T11:02:43.444Z,1.73
2019-03-25T11:05:51.955Z,1.90
2019-03-25T11:09:00.234Z,1.90
2019-03-25T11:12:08.747Z,1.53
2019-03-25T11:15:18.232Z,1.27
2019-03-25T11:18:26.512Z,1.30
2019-03-25T11:21:34.430Z,1.03
2019-03-25T11:24:43.861Z,0.80
2019-03-25T11:27:54.525Z,0.90
2019-03-25T11:31:02.811Z,1.13
2019-03-25T11:34:11.501Z,1.27
2019-03-25T11:37:20.106Z,1.00
2019-03-25T11:40:28.833Z,1.60
2019-03-25T11:43:37.580Z,1.57
2019-03-25T11:46:46.103Z,1.10
2019-03-25T11:49:54.518Z,1.17
2019-03-25T11:53:02.808Z,0.87
2019-03-25T11:56:11.146Z,1.10
2019-03-25T11:59:19.478Z,0.70
2019-03-25T12:02:28.189Z,0.90
2019-03-25T12:05:36.533Z,0.73
2019-03-25T12:08:44.860Z,0.70
2019-03-25T12:11:53.298Z,0.37
2019-03-25T12:15:01.818Z,0.20
2019-03-25T12:18:10.498Z,0.40
2019-03-25T12:21:19.002Z,1.00
2019-03-25T12:24:27.638Z,0.40
2019-03-25T12:27:36.413Z,1.00
2019-03-25T12:30:44.856Z,0.73
2019-03-25T12:33:53.028Z,0.40
2019-03-25T12:37:01.220Z,0.80
2019-03-25T12:40:09.956Z,0.90
2019-03-25T12:43:18.495Z,0.60
2019-03-25T12:46:26.690Z,0.90
2019-03-25T12:49:35.090Z,1.07
2019-03-25T12:52:43.396Z,1.30
2019-03-25T12:55:51.902Z,1.07
2019-03-25T12:59:00.333Z,1.07
2019-03-25T13:02:09.762Z,0.90
2019-03-25T13:05:18.177Z,0.80
2019-03-25T13:08:33.027Z,1.23
2019-03-25T13:11:36.842Z,0.63
2019-03-25T13:14:45.133Z,1.13
2019-03-25T13:17:54.017Z,0.80
2019-03-25T13:21:02.564Z,0.90
2019-03-25T13:24:11.192Z,0.90
2019-03-25T13:27:19.972Z,0.83
2019-03-25T13:30:28.944Z,0.70
2019-03-25T13:33:37.712Z,0.53
2019-03-25T13:36:45.926Z,0.80
2019-03-25T13:39:54.012Z,0.83
2019-03-25T13:43:02.958Z,0.80
2019-03-25T13:46:11.162Z,0.53
2019-03-25T13:49:19.176Z,0.90
2019-03-25T13:52:27.700Z,1.90
2019-03-25T13:55:36.148Z,1.50
2019-03-25T13:59:04.179Z,1.30
2019-03-25T14:02:12.589Z,0.97
2019-03-25T14:05:20.898Z,1.03
2019-03-25T14:08:29.410Z,0.83
2019-03-25T14:11:38.040Z,1.00
2019-03-25T14:14:46.933Z,0.90
2019-03-25T14:17:55.388Z,0.47
2019-03-25T14:21:03.925Z,1.30
2019-03-25T14:24:12.204Z,0.87
2019-03-25T14:27:20.422Z,0.57
2019-03-25T14:30:29.282Z,0.80
2019-03-25T14:33:38.057Z,1.07
2019-03-25T14:36:46.433Z,0.70
2019-03-25T14:39:54.637Z,1.03
2019-03-25T14:43:02.846Z,1.00
2019-03-25T14:46:11.242Z,1.00
2019-03-25T14:49:19.437Z,0.50
2019-03-25T14:52:28.279Z,0.73
2019-03-25T14:55:36.526Z,1.00
2019-03-25T14:58:45.277Z,0.33
2019-03-25T15:01:53.854Z,0.90
2019-03-25T15:05:02.265Z,0.80
2019-03-25T15:08:10.879Z,0.60
2019-03-25T15:11:19.177Z,1.23
2019-03-25T15:14:27.541Z,0.97
2019-03-25T15:17:36.162Z,1.43
2019-03-25T15:20:44.658Z,1.83
2019-03-25T15:23:53.850Z,1.07
2019-03-25T15:27:03.800Z,0.80
2019-03-25T15:30:13.279Z,1.00
2019-03-25T15:33:22.078Z,1.43
2019-03-25T15:36:31.010Z,1.33
2019-03-25T15:39:46.737Z,1.27
2019-03-25T15:42:51.258Z,1.33
2019-03-25T15:46:00.370Z,1.40
2019-03-25T15:49:09.030Z,1.47
2019-03-25T15:52:17.743Z,1.40
2019-03-25T15:55:26.706Z,1.97
2019-03-25T15:58:35.299Z,0.97
2019-03-25T16:01:43.945Z,1.30
2019-03-25T16:04:52.546Z,1.33
2019-03-25T16:08:01.279Z,1.40
2019-03-25T16:11:09.902Z,1.37
2019-03-25T16:14:18.507Z,1.27
2019-03-25T16:17:26.706Z,2.40
2019-03-25T16:20:35.059Z,1.50
2019-03-25T16:23:43.528Z,1.63
2019-03-25T16:26:52.432Z,2.00
2019-03-25T16:30:00.914Z,1.53
2019-03-25T16:33:09.214Z,1.70
2019-03-25T16:36:17.514Z,1.50
2019-03-25T16:39:26.594Z,1.10
2019-03-25T16:42:40.143Z,1.13
2019-03-25T16:45:52.415Z,1.60
2019-03-25T16:49:04.293Z,1.67
2019-03-25T16:52:13.061Z,1.30
2019-03-25T16:55:21.882Z,1.23
2019-03-25T16:58:30.194Z,0.60
2019-03-25T17:01:39.118Z,0.70
2019-03-25T17:04:47.352Z,1.10
2019-03-25T17:07:56.057Z,1.23
2019-03-25T17:11:05.489Z,2.07
2019-03-25T17:14:16.498Z,0.93
2019-03-25T17:17:24.958Z,1.13
2019-03-25T17:20:33.572Z,1.00
2019-03-25T17:23:42.360Z,1.33
2019-03-25T17:26:50.855Z,1.50
2019-03-25T17:30:00.524Z,1.20
2019-03-25T17:33:12.105Z,1.83
2019-03-25T17:36:23.830Z,1.80
2019-03-25T17:39:32.630Z,1.90
2019-03-25T17:42:42.891Z,1.37
2019-03-25T17:45:51.735Z,2.07
2019-03-25T17:49:00.392Z,1.77
2019-03-25T17:52:10.489Z,1.33
2019-03-25T17:55:19.288Z,1.47
2019-03-25T17:58:28.840Z,1.60
2019-03-25T18:01:38.385Z,1.20
2019-03-25T18:04:47.527Z,1.77
2019-03-25T18:07:56.472Z,2.33
2019-03-25T18:11:05.154Z,5.37
2019-03-25T18:14:14.578Z,3.53
2019-03-25T18:17:24.345Z,2.57
2019-03-25T18:20:32.965Z,2.00
2019-03-25T18:23:43.002Z,2.37
2019-03-25T18:26:52.567Z,2.57
2019-03-25T18:30:01.128Z,2.30
2019-03-25T18:33:09.419Z,1.47
2019-03-25T18:36:17.786Z,1.63
2019-03-25T18:39:26.585Z,2.17
2019-03-25T18:42:35.221Z,1.67
2019-03-25T18:45:43.603Z,1.23
2019-03-25T18:48:51.950Z,0.83
2019-03-25T18:52:00.344Z,0.70
2019-03-25T18:55:08.931Z,0.60
2019-03-25T18:58:17.229Z,0.43
2019-03-25T19:01:26.036Z,0.50
2019-03-25T19:04:34.563Z,0.63
2019-03-25T19:07:45.557Z,0.67
2019-03-25T19:10:53.744Z,0.93
2019-03-25T19:14:01.980Z,5.73
2019-03-25T19:17:10.171Z,3.03
2019-03-25T19:20:18.352Z,2.20
2019-03-25T19:23:26.578Z,1.80
2019-03-25T19:26:34.777Z,6.07
2019-03-25T19:29:43.194Z,6.07
2019-03-25T19:32:51.414Z,6.93
2019-03-25T19:36:00.125Z,7.73
2019-03-25T19:39:08.767Z,2.63
2019-03-25T19:42:16.966Z,6.13
2019-03-25T19:45:25.328Z,2.13
2019-03-25T19:48:33.860Z,1.50
2019-03-25T19:51:42.349Z,2.70
2019-03-25T19:54:52.695Z,1.77
2019-03-25T19:58:02.851Z,1.80
2019-03-25T20:01:12.127Z,2.53
2019-03-25T20:04:21.125Z,1.70
2019-03-25T20:07:30.821Z,1.80
2019-03-25T20:10:39.982Z,2.40
2019-03-25T20:13:48.058Z,1.37
2019-03-25T20:16:56.702Z,0.80
2019-03-25T20:20:07.391Z,1.00
2019-03-25T20:23:16.445Z,1.27
2019-03-25T20:26:26.529Z,1.10
2019-03-25T20:29:34.948Z,1.30
2019-03-25T20:32:44.087Z,1.00
2019-03-25T20:35:52.236Z,0.90
2019-03-25T20:39:00.999Z,1.20
2019-03-25T20:42:09.567Z,1.00
2019-03-25T20:45:18.473Z,1.03
2019-03-25T20:48:27.966Z,1.17
2019-03-25T20:51:36.420Z,0.97
2019-03-25T20:54:45.694Z,0.80
2019-03-25T20:57:54.457Z,0.90
2019-03-25T21:01:02.833Z,1.17
2019-03-25T21:04:11.142Z,1.27
2019-03-25T21:07:19.917Z,1.20
2019-03-25T21:10:28.268Z,1.60
2019-03-25T21:13:37.334Z,1.43
2019-03-25T21:16:46.251Z,1.40
2019-03-25T21:19:55.327Z,2.10
2019-03-25T21:23:03.605Z,1.80
2019-03-25T21:26:11.991Z,1.87
2019-03-25T21:29:20.520Z,1.80
2019-03-25T21:32:28.847Z,1.77
2019-03-25T21:35:37.233Z,1.80
2019-03-25T21:38:45.865Z,1.80
2019-03-25T21:41:54.684Z,2.20
2019-03-25T21:45:03.647Z,2.03
2019-03-25T21:48:12.788Z,2.20
2019-03-25T21:51:21.191Z,2.53
2019-03-25T21:54:29.387Z,2.30
2019-03-25T21:57:38.065Z,2.37
2019-03-25T22:00:46.385Z,2.53
2019-03-25T22:03:54.463Z,2.93
2019-03-25T22:07:02.642Z,2.33
2019-03-25T22:10:11.431Z,2.13
2019-03-25T22:13:20.004Z,3.43
2019-03-25T22:16:28.459Z,3.03
2019-03-25T22:19:37.077Z,2.50
2019-03-25T22:22:45.411Z,2.87
2019-03-25T22:25:53.697Z,2.97
2019-03-25T22:29:02.012Z,3.10
2019-03-25T22:32:10.439Z,3.43
2019-03-25T22:35:19.061Z,2.93
2019-03-25T22:38:27.717Z,2.80
2019-03-25T22:41:36.412Z,3.40
2019-03-25T22:44:45.041Z,3.40
2019-03-25T22:47:53.754Z,3.50
2019-03-25T22:51:02.624Z,3.33
2019-03-25T22:54:11.002Z,3.90
2019-03-25T22:57:19.522Z,3.70
2019-03-25T23:00:38.411Z,3.23
2019-03-25T23:03:46.686Z,3.60
2019-03-25T23:06:54.925Z,3.00
2019-03-25T23:10:04.172Z,3.17
2019-03-25T23:13:12.669Z,2.67
2019-03-25T23:16:20.882Z,3.37
2019-03-25T23:19:28.980Z,3.57
2019-03-25T23:22:37.510Z,3.20
2019-03-25T23:25:45.757Z,3.43
2019-03-25T23:28:53.957Z,3.00
2019-03-25T23:32:02.361Z,3.40
2019-03-25T23:35:10.727Z,2.77
2019-03-25T23:38:18.927Z,3.10
2019-03-25T23:41:27.034Z,3.00
2019-03-25T23:44:35.313Z,2.70
2019-03-25T23:47:43.426Z,3.00
2019-03-25T23:50:51.625Z,2.50
2019-03-25T23:54:13.700Z,3.03
2019-03-25T23:57:21.826Z,3.03
